createdAt,value
2019-05-02T00:00:55.222Z,71.90
2019-05-02T00:03:30.440Z,71.80
2019-05-02T00:06:07.434Z,71.80
2019-05-02T00:08:39.761Z,71.70
2019-05-02T00:11:14.007Z,71.90
2019-05-02T00:13:48.193Z,72.00
2019-05-02T00:16:21.889Z,72.00
2019-05-02T00:18:55.702Z,72.10
2019-05-02T00:21:32.952Z,72.20
2019-05-02T00:24:06.716Z,72.10
2019-05-02T00:26:40.146Z,72.70
2019-05-02T00:29:13.580Z,72.20
2019-05-02T00:31:48.801Z,72.10
2019-05-02T00:34:22.244Z,72.20
2019-05-02T00:36:55.668Z,72.10
2019-05-02T00:39:29.281Z,71.90
2019-05-02T00:42:12.457Z,72.30
2019-05-02T00:44:42.015Z,72.60
2019-05-02T00:47:23.552Z,72.90
2019-05-02T00:49:56.985Z,72.90
2019-05-02T00:52:32.880Z,72.80
2019-05-02T00:55:06.682Z,72.90
2019-05-02T00:57:40.117Z,73.10
2019-05-02T01:00:18.501Z,73.00
2019-05-02T01:02:57.981Z,73.00
2019-05-02T01:05:33.694Z,72.90
2019-05-02T01:08:06.892Z,73.10
2019-05-02T01:10:40.326Z,73.00
2019-05-02T01:13:14.759Z,73.20
2019-05-02T01:15:48.472Z,73.30
2019-05-02T01:18:23.555Z,73.30
2019-05-02T01:20:58.186Z,73.40
2019-05-02T01:23:32.153Z,73.50
2019-05-02T01:26:07.374Z,73.30
2019-05-02T01:28:49.251Z,73.40
2019-05-02T01:31:34.974Z,73.50
2019-05-02T01:34:17.541Z,73.40
2019-05-02T01:36:49.775Z,73.90
2019-05-02T01:39:23.225Z,73.80
2019-05-02T01:41:59.974Z,73.50
2019-05-02T01:44:36.478Z,73.60
2019-05-02T01:47:07.036Z,73.70
2019-05-02T01:49:40.482Z,73.70
2019-05-02T01:52:14.190Z,73.80
2019-05-02T01:54:47.628Z,73.70
2019-05-02T01:57:21.063Z,73.80
2019-05-02T01:59:54.491Z,73.70
2019-05-02T02:02:32.469Z,73.50
2019-05-02T02:05:05.219Z,73.30
2019-05-02T02:07:38.649Z,73.30
2019-05-02T02:10:15.070Z,72.80
2019-05-02T02:13:02.732Z,73.00
2019-05-02T02:15:25.072Z,73.30
2019-05-02T02:17:57.883Z,73.30
2019-05-02T02:20:38.717Z,73.50
2019-05-02T02:23:22.664Z,73.40
2019-05-02T02:25:57.820Z,73.30
2019-05-02T02:28:32.222Z,73.40
2019-05-02T02:31:07.916Z,73.00
2019-05-02T02:33:47.934Z,73.20
2019-05-02T02:36:30.153Z,73.20
2019-05-02T02:38:52.013Z,73.30
2019-05-02T02:41:25.457Z,73.00
2019-05-02T02:44:06.081Z,73.10
2019-05-02T02:46:44.236Z,73.10
2019-05-02T02:49:21.295Z,73.40
2019-05-02T02:51:57.900Z,73.30
2019-05-02T02:54:27.983Z,73.40
2019-05-02T02:57:01.416Z,73.60
2019-05-02T02:59:34.840Z,73.30
2019-05-02T03:02:10.174Z,73.50
2019-05-02T03:04:45.976Z,73.50
2019-05-02T03:07:25.763Z,73.40
2019-05-02T03:09:59.763Z,73.30
2019-05-02T03:12:36.102Z,73.30
2019-05-02T03:15:14.514Z,73.40
2019-05-02T03:17:48.207Z,73.20
2019-05-02T03:20:21.653Z,73.50
2019-05-02T03:22:55.154Z,73.50
2019-05-02T03:25:49.240Z,73.40
2019-05-02T03:28:04.034Z,73.40
2019-05-02T03:30:38.149Z,73.30
2019-05-02T03:33:12.731Z,72.90
2019-05-02T03:35:49.044Z,73.00
2019-05-02T03:38:31.371Z,73.20
2019-05-02T03:40:57.272Z,73.20
2019-05-02T03:43:30.700Z,73.60
2019-05-02T03:46:04.288Z,73.00
2019-05-02T03:48:37.713Z,73.10
2019-05-02T03:51:19.767Z,73.10
2019-05-02T03:53:46.663Z,73.40
2019-05-02T03:56:20.098Z,73.30
2019-05-02T03:58:55.985Z,73.20
2019-05-02T04:01:34.656Z,73.20
2019-05-02T04:04:05.366Z,73.30
2019-05-02T04:06:39.177Z,73.40
2019-05-02T04:09:38.834Z,73.30
2019-05-02T04:12:18.623Z,73.40
2019-05-02T04:14:44.841Z,73.40
2019-05-02T04:17:18.457Z,73.40
2019-05-02T04:19:52.329Z,74.10
2019-05-02T04:22:26.944Z,73.50
2019-05-02T04:25:00.849Z,73.60
2019-05-02T04:27:35.891Z,73.80
2019-05-02T04:30:13.826Z,73.90
2019-05-02T04:32:49.673Z,74.00
2019-05-02T04:35:20.351Z,74.60
2019-05-02T04:37:53.795Z,73.90
2019-05-02T04:40:28.359Z,73.90
2019-05-02T04:43:08.155Z,74.00
2019-05-02T04:45:51.876Z,73.90
2019-05-02T04:48:12.486Z,73.70
2019-05-02T04:50:48.339Z,73.80
2019-05-02T04:53:25.870Z,73.60
2019-05-02T04:56:05.093Z,73.70
2019-05-02T04:58:36.694Z,73.50
2019-05-02T05:01:09.892Z,73.50
2019-05-02T05:03:42.128Z,73.40
2019-05-02T05:06:15.625Z,73.20
2019-05-02T05:08:49.069Z,73.00
2019-05-02T05:11:24.926Z,73.10
2019-05-02T05:14:00.298Z,73.00
2019-05-02T05:16:32.823Z,72.70
2019-05-02T05:19:07.626Z,72.70
2019-05-02T05:21:41.217Z,72.40
2019-05-02T05:24:19.292Z,72.40
2019-05-02T05:26:54.361Z,72.30
2019-05-02T05:29:29.105Z,72.40
2019-05-02T05:32:07.390Z,72.20
2019-05-02T05:34:38.182Z,71.90
2019-05-02T05:37:13.448Z,71.90
2019-05-02T05:39:48.801Z,71.70
2019-05-02T05:42:23.450Z,71.60
2019-05-02T05:44:58.375Z,71.20
2019-05-02T05:47:32.029Z,71.10
2019-05-02T05:50:08.253Z,71.00
2019-05-02T05:52:42.573Z,70.80
2019-05-02T05:55:20.357Z,70.60
2019-05-02T05:57:59.607Z,70.60
2019-05-02T06:00:27.804Z,70.40
2019-05-02T06:03:10.787Z,70.10
2019-05-02T06:05:38.521Z,69.90
2019-05-02T06:08:13.785Z,69.80
2019-05-02T06:10:47.079Z,69.50
2019-05-02T06:13:20.507Z,69.30
2019-05-02T06:16:02.052Z,69.30
2019-05-02T06:18:29.232Z,68.90
2019-05-02T06:21:03.288Z,68.70
2019-05-02T06:23:41.253Z,68.50
2019-05-02T06:26:13.787Z,68.30
2019-05-02T06:28:48.271Z,68.10
2019-05-02T06:31:21.716Z,67.90
2019-05-02T06:33:55.145Z,67.60
2019-05-02T06:36:31.909Z,67.20
2019-05-02T06:39:05.411Z,67.10
2019-05-02T06:41:38.857Z,66.80
2019-05-02T06:44:12.679Z,66.80
2019-05-02T06:46:46.121Z,66.30
2019-05-02T06:49:24.150Z,65.90
2019-05-02T06:51:56.189Z,65.30
2019-05-02T06:54:29.883Z,65.00
2019-05-02T06:57:03.492Z,64.50
2019-05-02T06:59:36.921Z,64.40
2019-05-02T07:02:10.368Z,63.90
2019-05-02T07:04:43.797Z,63.70
2019-05-02T07:07:17.245Z,63.50
2019-05-02T07:09:50.789Z,63.20
2019-05-02T07:12:24.265Z,62.70
2019-05-02T07:15:01.548Z,62.50
2019-05-02T07:17:38.168Z,62.30
2019-05-02T07:20:10.759Z,62.20
2019-05-02T07:22:45.716Z,61.80
2019-05-02T07:25:19.527Z,61.90
2019-05-02T07:27:52.981Z,61.90
2019-05-02T07:30:30.110Z,61.50
2019-05-02T07:33:02.438Z,61.40
2019-05-02T07:35:35.914Z,61.30
2019-05-02T07:38:09.422Z,61.10
2019-05-02T07:40:42.859Z,61.00
2019-05-02T07:43:21.328Z,60.90
2019-05-02T07:45:51.442Z,60.80
2019-05-02T07:48:24.953Z,60.60
2019-05-02T07:50:58.397Z,60.40
2019-05-02T07:53:31.847Z,60.30
2019-05-02T07:56:05.433Z,60.20
2019-05-02T07:58:46.710Z,60.00
2019-05-02T08:01:15.316Z,60.00
2019-05-02T08:03:49.078Z,59.90
2019-05-02T08:06:34.679Z,59.90
2019-05-02T08:09:01.669Z,59.90
2019-05-02T08:11:37.151Z,59.80
2019-05-02T08:14:08.061Z,59.40
2019-05-02T08:16:41.557Z,59.20
2019-05-02T08:19:15.008Z,58.80
2019-05-02T08:21:48.431Z,58.50
2019-05-02T08:24:21.882Z,58.00
2019-05-02T08:26:58.253Z,57.50
2019-05-02T08:29:32.112Z,57.00
2019-05-02T08:32:05.601Z,56.40
2019-05-02T08:34:39.042Z,56.40
2019-05-02T08:37:12.469Z,56.30
2019-05-02T08:39:45.921Z,56.00
2019-05-02T08:42:19.349Z,55.50
2019-05-02T08:44:56.349Z,55.50
2019-05-02T08:47:30.215Z,55.10
2019-05-02T08:50:07.608Z,54.80
2019-05-02T08:52:42.169Z,54.20
2019-05-02T08:55:15.601Z,54.20
2019-05-02T08:57:49.153Z,54.40
2019-05-02T09:00:22.600Z,54.60
2019-05-02T09:02:57.051Z,54.70
2019-05-02T09:05:31.186Z,54.60
2019-05-02T09:08:09.168Z,54.90
2019-05-02T09:10:42.176Z,54.80
2019-05-02T09:13:23.627Z,55.30
2019-05-02T09:15:53.574Z,54.90
2019-05-02T09:18:35.243Z,54.80
2019-05-02T09:21:02.034Z,55.00
2019-05-02T09:23:37.231Z,54.70
2019-05-02T09:26:11.904Z,54.70
2019-05-02T09:28:45.525Z,54.50
2019-05-02T09:31:18.965Z,54.60
2019-05-02T09:33:55.319Z,54.40
2019-05-02T09:36:27.559Z,54.30
2019-05-02T09:39:02.636Z,54.30
2019-05-02T09:41:36.456Z,54.30
2019-05-02T09:44:14.535Z,54.20
2019-05-02T09:46:47.436Z,54.10
2019-05-02T09:49:22.092Z,54.20
2019-05-02T09:51:59.282Z,54.50
2019-05-02T09:54:32.254Z,54.20
2019-05-02T09:57:05.949Z,53.70
2019-05-02T09:59:43.444Z,53.40
2019-05-02T10:02:14.677Z,53.20
2019-05-02T10:04:48.153Z,53.30
2019-05-02T10:07:22.293Z,53.20
2019-05-02T10:09:57.708Z,52.80
2019-05-02T10:12:32.101Z,52.50
2019-05-02T10:15:08.517Z,52.30
2019-05-02T10:17:46.448Z,52.00
2019-05-02T10:20:17.553Z,51.40
2019-05-02T10:22:52.967Z,50.60
2019-05-02T10:25:32.848Z,49.80
2019-05-02T10:28:02.175Z,49.90
2019-05-02T10:30:36.195Z,50.00
2019-05-02T10:33:11.778Z,49.50
2019-05-02T10:35:46.673Z,48.90
2019-05-02T10:38:20.105Z,49.00
2019-05-02T10:41:01.306Z,48.90
2019-05-02T10:43:28.733Z,49.30
2019-05-02T10:46:09.552Z,49.80
2019-05-02T10:48:44.612Z,49.70
2019-05-02T10:51:26.202Z,49.90
2019-05-02T10:53:59.893Z,49.40
2019-05-02T10:56:33.344Z,49.40
2019-05-02T10:59:06.917Z,49.30
2019-05-02T11:01:44.604Z,49.10
2019-05-02T11:04:18.100Z,49.40
2019-05-02T11:06:51.875Z,49.40
2019-05-02T11:09:26.419Z,49.10
2019-05-02T11:12:02.538Z,48.90
2019-05-02T11:14:42.076Z,48.70
2019-05-02T11:17:36.422Z,48.60
2019-05-02T11:20:12.453Z,48.30
2019-05-02T11:22:45.871Z,48.00
2019-05-02T11:25:19.305Z,47.60
2019-05-02T11:27:52.754Z,47.30
2019-05-02T11:30:27.893Z,47.00
2019-05-02T11:33:03.093Z,47.00
2019-05-02T11:35:36.762Z,46.90
2019-05-02T11:38:10.628Z,46.40
2019-05-02T11:40:45.352Z,46.40
2019-05-02T11:43:18.791Z,46.20
2019-05-02T11:45:55.875Z,46.00
2019-05-02T11:48:27.416Z,45.90
2019-05-02T11:51:02.618Z,45.60
2019-05-02T11:53:36.075Z,45.50
2019-05-02T11:56:11.035Z,45.60
2019-05-02T11:58:48.027Z,46.00
2019-05-02T12:01:34.286Z,46.20
2019-05-02T12:03:54.997Z,46.20
2019-05-02T12:06:28.441Z,46.10
2019-05-02T12:09:02.813Z,45.70
2019-05-02T12:11:36.666Z,45.30
2019-05-02T12:14:12.216Z,45.30
2019-05-02T12:16:45.256Z,45.70
2019-05-02T12:19:18.701Z,44.90
2019-05-02T12:21:56.277Z,44.90
2019-05-02T12:24:31.761Z,45.10
2019-05-02T12:27:05.488Z,44.90
2019-05-02T12:29:38.937Z,44.50
2019-05-02T12:32:15.378Z,44.30
2019-05-02T12:34:47.524Z,44.10
2019-05-02T12:37:21.904Z,43.70
2019-05-02T12:39:55.555Z,43.50
2019-05-02T12:42:29.351Z,43.40
2019-05-02T12:45:03.939Z,43.50
2019-05-02T12:47:37.369Z,43.40
2019-05-02T12:50:12.134Z,43.20
2019-05-02T12:52:45.673Z,42.60
2019-05-02T12:55:19.112Z,42.80
2019-05-02T12:57:52.556Z,43.00
2019-05-02T13:00:26.027Z,43.30
2019-05-02T13:03:04.037Z,43.20
2019-05-02T13:05:37.480Z,42.70
2019-05-02T13:08:12.309Z,42.60
2019-05-02T13:11:06.781Z,42.40
2019-05-02T13:13:37.850Z,42.50
2019-05-02T13:16:12.234Z,42.70
2019-05-02T13:18:46.029Z,42.70
2019-05-02T13:21:23.366Z,42.50
2019-05-02T13:23:57.906Z,41.90
2019-05-02T13:26:32.075Z,41.70
2019-05-02T13:29:06.280Z,41.70
2019-05-02T13:31:57.662Z,41.50
2019-05-02T13:34:41.435Z,41.00
2019-05-02T13:37:15.485Z,40.70
2019-05-02T13:39:56.547Z,41.00
2019-05-02T13:42:29.972Z,40.50
2019-05-02T13:45:09.197Z,40.30
2019-05-02T13:47:42.711Z,40.30
2019-05-02T13:50:16.654Z,40.20
2019-05-02T13:52:53.103Z,40.20
2019-05-02T13:55:29.409Z,39.80
2019-05-02T13:58:02.831Z,39.70
2019-05-02T14:00:43.537Z,39.60
2019-05-02T14:03:17.639Z,39.20
2019-05-02T14:05:53.715Z,38.80
2019-05-02T14:08:35.430Z,38.20
2019-05-02T14:11:07.188Z,38.00
2019-05-02T14:13:42.499Z,37.40
2019-05-02T14:16:15.821Z,37.50
2019-05-02T14:18:49.253Z,37.30
2019-05-02T14:21:22.693Z,37.40
2019-05-02T14:23:56.116Z,37.40
2019-05-02T14:26:30.715Z,37.00
2019-05-02T14:29:07.151Z,36.80
2019-05-02T14:31:42.027Z,36.10
2019-05-02T14:34:23.037Z,35.30
2019-05-02T14:36:59.320Z,35.10
2019-05-02T14:39:32.517Z,34.70
2019-05-02T14:42:06.643Z,34.60
2019-05-02T14:45:01.469Z,34.30
2019-05-02T14:47:19.586Z,33.90
2019-05-02T14:49:52.199Z,33.30
2019-05-02T14:52:25.908Z,33.30
2019-05-02T14:54:59.343Z,33.10
2019-05-02T14:57:32.783Z,32.90
2019-05-02T15:00:08.160Z,33.00
2019-05-02T15:02:44.945Z,32.70
2019-05-02T15:05:19.283Z,32.70
2019-05-02T15:07:56.769Z,32.50
2019-05-02T15:10:28.685Z,32.40
2019-05-02T15:13:03.923Z,32.80
2019-05-02T15:15:41.061Z,31.60
2019-05-02T15:18:17.368Z,31.10
2019-05-02T15:20:47.945Z,30.50
2019-05-02T15:23:22.754Z,30.40
2019-05-02T15:25:56.604Z,30.70
2019-05-02T15:28:37.230Z,30.80
2019-05-02T15:31:18.994Z,31.00
2019-05-02T15:34:04.931Z,30.90
2019-05-02T15:36:36.993Z,30.60
2019-05-02T15:41:48.721Z,30.50
2019-05-02T15:44:23.582Z,30.30
2019-05-02T15:46:58.492Z,30.40
2019-05-02T15:49:36.692Z,30.80
2019-05-02T15:52:12.545Z,30.90
2019-05-02T15:54:46.158Z,31.10
2019-05-02T15:57:22.092Z,31.00
2019-05-02T15:59:55.100Z,30.70
2019-05-02T16:02:32.009Z,30.70
2019-05-02T16:05:08.180Z,31.00
2019-05-02T16:07:43.304Z,31.10
2019-05-02T16:10:17.492Z,31.20
2019-05-02T16:12:52.769Z,31.30
2019-05-02T16:15:26.507Z,31.30
2019-05-02T16:18:03.985Z,31.30
2019-05-02T16:20:46.812Z,31.50
2019-05-02T16:23:19.115Z,31.70
2019-05-02T16:25:50.048Z,32.10
2019-05-02T16:28:23.468Z,32.20
2019-05-02T16:30:58.558Z,32.50
2019-05-02T16:33:32.027Z,32.80
2019-05-02T16:36:05.465Z,32.90
2019-05-02T16:38:38.881Z,33.10
2019-05-02T16:41:12.321Z,33.40
2019-05-02T16:43:45.752Z,33.70
2019-05-02T16:46:19.184Z,34.00
2019-05-02T16:48:52.827Z,33.90
2019-05-02T16:51:30.773Z,33.80
2019-05-02T16:54:05.047Z,33.90
2019-05-02T16:56:36.956Z,34.60
2019-05-02T16:59:12.627Z,34.60
2019-05-02T17:01:45.909Z,35.10
2019-05-02T17:04:19.330Z,35.50
2019-05-02T17:06:56.798Z,35.80
2019-05-02T17:09:33.834Z,36.60
2019-05-02T17:12:11.872Z,36.50
2019-05-02T17:14:51.582Z,36.80
2019-05-02T17:17:20.113Z,37.30
2019-05-02T17:19:53.544Z,37.70
2019-05-02T17:22:26.985Z,38.10
2019-05-02T17:25:02.382Z,38.60
2019-05-02T17:27:35.577Z,38.90
2019-05-02T17:30:12.072Z,39.30
2019-05-02T17:32:45.656Z,39.80
2019-05-02T17:35:22.010Z,40.10
2019-05-02T17:37:54.896Z,40.50
2019-05-02T17:40:28.323Z,40.80
2019-05-02T17:43:06.578Z,41.20
2019-05-02T17:45:38.949Z,41.20
2019-05-02T17:48:16.209Z,41.50
2019-05-02T17:51:08.086Z,41.70
2019-05-02T17:53:49.285Z,41.90
2019-05-02T17:56:20.545Z,42.20
2019-05-02T17:58:56.555Z,42.30
2019-05-02T18:01:33.322Z,42.60
2019-05-02T18:04:06.800Z,42.80
2019-05-02T18:06:39.277Z,43.10
2019-05-02T18:09:15.471Z,43.30
2019-05-02T18:11:47.887Z,43.50
2019-05-02T18:14:22.079Z,43.70
2019-05-02T18:16:56.483Z,43.70
2019-05-02T18:19:31.570Z,43.90
2019-05-02T18:22:08.294Z,44.10
2019-05-02T18:24:42.768Z,44.30
2019-05-02T18:27:16.074Z,44.40
2019-05-02T18:29:51.535Z,44.60
2019-05-02T18:32:26.179Z,44.80
2019-05-02T18:35:04.317Z,44.90
2019-05-02T18:37:37.201Z,45.10
2019-05-02T18:40:11.884Z,45.40
2019-05-02T18:42:45.732Z,45.80
2019-05-02T18:45:28.529Z,46.10
2019-05-02T18:48:06.441Z,46.20
2019-05-02T18:50:42.571Z,46.40
2019-05-02T18:53:18.648Z,46.60
2019-05-02T18:55:51.862Z,46.90
2019-05-02T18:58:25.732Z,47.10
2019-05-02T19:00:59.161Z,47.30
2019-05-02T19:03:33.360Z,47.40
2019-05-02T19:06:07.408Z,47.60
2019-05-02T19:08:46.550Z,48.20
2019-05-02T19:11:19.211Z,47.80
2019-05-02T19:13:52.860Z,47.90
2019-05-02T19:16:28.704Z,48.00
2019-05-02T19:19:01.873Z,48.00
2019-05-02T19:21:36.845Z,47.90
2019-05-02T19:24:10.670Z,47.70
2019-05-02T19:26:49.256Z,47.60
2019-05-02T19:29:22.129Z,47.60
2019-05-02T19:31:56.901Z,47.40
2019-05-02T19:34:32.181Z,47.20
2019-05-02T19:37:05.661Z,47.40
2019-05-02T19:39:46.852Z,47.80
2019-05-02T19:42:17.120Z,48.40
2019-05-02T19:44:50.164Z,49.10
2019-05-02T19:47:23.593Z,49.90
2019-05-02T19:49:57.037Z,50.60
2019-05-02T19:52:38.846Z,51.70
2019-05-02T19:55:06.504Z,52.60
2019-05-02T19:57:42.314Z,53.30
2019-05-02T20:00:15.432Z,53.80
2019-05-02T20:02:49.684Z,54.20
2019-05-02T20:05:25.562Z,54.60
2019-05-02T20:08:00.076Z,55.00
2019-05-02T20:10:33.597Z,55.20
2019-05-02T20:13:07.175Z,55.40
2019-05-02T20:15:45.013Z,55.70
2019-05-02T20:18:18.437Z,55.90
2019-05-02T20:20:53.684Z,56.20
2019-05-02T20:23:31.812Z,56.50
2019-05-02T20:26:02.283Z,56.70
2019-05-02T20:28:35.857Z,57.20
2019-05-02T20:31:09.288Z,57.80
2019-05-02T20:33:43.144Z,58.30
2019-05-02T20:36:16.916Z,58.90
2019-05-02T20:38:52.426Z,59.20
2019-05-02T20:41:25.515Z,59.40
2019-05-02T20:43:58.944Z,59.80
2019-05-02T20:46:32.688Z,60.30
2019-05-02T20:49:06.193Z,60.40
2019-05-02T20:51:39.633Z,59.90
2019-05-02T20:54:13.061Z,59.40
2019-05-02T20:56:46.500Z,58.80
2019-05-02T20:59:21.709Z,58.30
2019-05-02T21:01:56.529Z,58.10
2019-05-02T21:04:31.743Z,58.00
2019-05-02T21:07:10.320Z,58.00
2019-05-02T21:09:52.503Z,58.20
2019-05-02T21:12:26.169Z,58.30
2019-05-02T21:15:01.614Z,58.20
2019-05-02T21:17:34.752Z,58.30
2019-05-02T21:20:08.737Z,58.40
2019-05-02T21:22:42.305Z,58.80
2019-05-02T21:25:15.978Z,59.10
2019-05-02T21:27:49.399Z,59.60
2019-05-02T21:30:27.400Z,60.00
2019-05-02T21:33:02.766Z,60.30
2019-05-02T21:35:36.261Z,60.30
2019-05-02T21:38:11.809Z,61.00
2019-05-02T21:40:44.836Z,60.70
2019-05-02T21:43:18.273Z,60.80
2019-05-02T21:45:51.747Z,61.10
2019-05-02T21:48:26.661Z,61.10
2019-05-02T21:51:04.652Z,60.90
2019-05-02T21:53:54.211Z,60.80
2019-05-02T21:56:25.314Z,60.70
2019-05-02T21:59:05.008Z,60.40
2019-05-02T22:01:43.299Z,60.40
2019-05-02T22:04:17.068Z,60.60
2019-05-02T22:06:52.184Z,60.30
2019-05-02T22:09:25.884Z,60.30
2019-05-02T22:11:59.321Z,60.20
2019-05-02T22:14:33.037Z,60.10
2019-05-02T22:17:06.740Z,60.00
2019-05-02T22:19:41.689Z,60.00
2019-05-02T22:22:15.480Z,60.00
2019-05-02T22:24:49.076Z,60.60
2019-05-02T22:27:22.517Z,60.20
2019-05-02T22:29:55.945Z,60.50
2019-05-02T22:32:29.385Z,60.90
2019-05-02T22:35:03.073Z,60.90
2019-05-02T22:37:38.185Z,61.10
2019-05-02T22:40:13.591Z,61.30
2019-05-02T22:42:47.346Z,61.50
2019-05-02T22:45:21.784Z,61.40
2019-05-02T22:47:55.491Z,61.50
2019-05-02T22:50:28.917Z,61.50
2019-05-02T22:53:02.345Z,61.20
2019-05-02T22:55:35.840Z,61.40
2019-05-02T22:58:09.488Z,61.40
2019-05-02T23:00:42.926Z,61.30
2019-05-02T23:03:16.369Z,61.00
2019-05-02T23:05:49.789Z,61.20
2019-05-02T23:08:23.234Z,61.10
2019-05-02T23:10:56.665Z,61.30
2019-05-02T23:13:31.914Z,61.70
2019-05-02T23:16:05.259Z,61.60
2019-05-02T23:18:38.700Z,61.90
2019-05-02T23:21:12.682Z,62.10
2019-05-02T23:23:46.445Z,62.20
2019-05-02T23:26:31.749Z,62.50
2019-05-02T23:29:07.271Z,62.70
2019-05-02T23:31:42.290Z,62.80
2019-05-02T23:34:15.921Z,62.90
2019-05-02T23:36:49.344Z,62.90
2019-05-02T23:39:22.785Z,63.10
2019-05-02T23:41:56.210Z,63.20
2019-05-02T23:44:29.647Z,63.20
2019-05-02T23:47:03.080Z,63.70
2019-05-02T23:49:36.522Z,64.20
2019-05-02T23:52:11.642Z,64.70
2019-05-02T23:54:52.102Z,65.20
2019-05-02T23:57:20.256Z,65.50
2019-05-02T23:59:53.707Z,66.00
